sensor_id;sensor_type;location;lat;lon;timestamp;P1;durP1;ratioP1;P2;durP2;ratioP2
50769;SDS011;36740;48.698;11.472;2023-12-28T00:01:09;14.10;;;8.98;;
50769;SDS011;36740;48.698;11.472;2023-12-28T00:03:55;14.80;;;8.38;;
50769;SDS011;36740;48.698;11.472;2023-12-28T00:06:40;11.75;;;8.32;;
50769;SDS011;36740;48.698;11.472;2023-12-28T00:09:26;12.75;;;8.55;;
50769;SDS011;36740;48.698;11.472;2023-12-28T00:12:12;14.65;;;8.88;;
50769;SDS011;36740;48.698;11.472;2023-12-28T00:14:58;12.23;;;8.52;;
50769;SDS011;36740;48.698;11.472;2023-12-28T00:17:43;12.00;;;8.60;;
50769;SDS011;36740;48.698;11.472;2023-12-28T00:20:29;18.58;;;9.80;;
50769;SDS011;36740;48.698;11.472;2023-12-28T00:23:15;15.80;;;8.95;;
50769;SDS011;36740;48.698;11.472;2023-12-28T00:26:01;14.00;;;10.95;;
50769;SDS011;36740;48.698;11.472;2023-12-28T00:28:47;15.30;;;8.90;;
50769;SDS011;36740;48.698;11.472;2023-12-28T00:31:33;13.95;;;8.85;;
50769;SDS011;36740;48.698;11.472;2023-12-28T00:34:19;12.20;;;7.82;;
50769;SDS011;36740;48.698;11.472;2023-12-28T00:37:04;20.33;;;11.88;;
50769;SDS011;36740;48.698;11.472;2023-12-28T00:39:50;16.27;;;9.60;;
50769;SDS011;36740;48.698;11.472;2023-12-28T00:42:36;12.82;;;8.20;;
50769;SDS011;36740;48.698;11.472;2023-12-28T00:45:22;13.27;;;8.63;;
50769;SDS011;36740;48.698;11.472;2023-12-28T00:48:08;15.13;;;8.75;;
50769;SDS011;36740;48.698;11.472;2023-12-28T00:50:53;11.60;;;7.80;;
50769;SDS011;36740;48.698;11.472;2023-12-28T00:53:44;11.05;;;8.52;;
50769;SDS011;36740;48.698;11.472;2023-12-28T00:56:30;12.43;;;7.40;;
50769;SDS011;36740;48.698;11.472;2023-12-28T00:59:15;15.82;;;8.68;;
50769;SDS011;36740;48.698;11.472;2023-12-28T01:02:01;12.13;;;8.52;;
50769;SDS011;36740;48.698;11.472;2023-12-28T01:04:47;14.07;;;7.40;;
50769;SDS011;36740;48.698;11.472;2023-12-28T01:07:33;17.45;;;8.73;;
50769;SDS011;36740;48.698;11.472;2023-12-28T01:10:18;13.32;;;9.13;;
50769;SDS011;36740;48.698;11.472;2023-12-28T01:13:04;13.45;;;9.20;;
50769;SDS011;36740;48.698;11.472;2023-12-28T01:15:50;11.55;;;7.78;;
50769;SDS011;36740;48.698;11.472;2023-12-28T01:18:36;12.60;;;7.97;;
50769;SDS011;36740;48.698;11.472;2023-12-28T01:21:21;12.90;;;7.28;;
50769;SDS011;36740;48.698;11.472;2023-12-28T01:24:07;21.10;;;8.52;;
50769;SDS011;36740;48.698;11.472;2023-12-28T01:26:53;14.90;;;9.55;;
50769;SDS011;36740;48.698;11.472;2023-12-28T01:29:39;14.88;;;8.85;;
50769;SDS011;36740;48.698;11.472;2023-12-28T01:32:24;15.15;;;9.02;;
50769;SDS011;36740;48.698;11.472;2023-12-28T01:35:10;13.27;;;8.48;;
50769;SDS011;36740;48.698;11.472;2023-12-28T01:37:56;14.38;;;9.07;;
50769;SDS011;36740;48.698;11.472;2023-12-28T01:40:46;13.63;;;8.32;;
50769;SDS011;36740;48.698;11.472;2023-12-28T01:43:33;17.05;;;7.90;;
50769;SDS011;36740;48.698;11.472;2023-12-28T01:46:19;10.45;;;8.00;;
50769;SDS011;36740;48.698;11.472;2023-12-28T01:49:06;14.20;;;8.50;;
50769;SDS011;36740;48.698;11.472;2023-12-28T01:51:52;12.70;;;9.07;;
50769;SDS011;36740;48.698;11.472;2023-12-28T01:54:39;13.30;;;6.15;;
50769;SDS011;36740;48.698;11.472;2023-12-28T01:57:26;14.05;;;8.57;;
50769;SDS011;36740;48.698;11.472;2023-12-28T02:00:12;16.02;;;8.07;;
50769;SDS011;36740;48.698;11.472;2023-12-28T02:02:58;14.82;;;8.63;;
50769;SDS011;36740;48.698;11.472;2023-12-28T02:05:45;10.43;;;6.25;;
50769;SDS011;36740;48.698;11.472;2023-12-28T02:08:32;13.65;;;7.18;;
50769;SDS011;36740;48.698;11.472;2023-12-28T02:11:18;11.18;;;6.68;;
50769;SDS011;36740;48.698;11.472;2023-12-28T02:14:04;15.32;;;6.72;;
50769;SDS011;36740;48.698;11.472;2023-12-28T02:16:54;14.88;;;7.47;;
50769;SDS011;36740;48.698;11.472;2023-12-28T02:19:50;13.85;;;7.57;;
50769;SDS011;36740;48.698;11.472;2023-12-28T02:22:38;10.52;;;7.05;;
50769;SDS011;36740;48.698;11.472;2023-12-28T02:25:25;12.20;;;6.03;;
50769;SDS011;36740;48.698;11.472;2023-12-28T02:28:11;9.50;;;6.82;;
50769;SDS011;36740;48.698;11.472;2023-12-28T02:30:57;10.57;;;6.28;;
50769;SDS011;36740;48.698;11.472;2023-12-28T02:33:48;11.38;;;7.68;;
50769;SDS011;36740;48.698;11.472;2023-12-28T02:36:44;12.50;;;5.93;;
50769;SDS011;36740;48.698;11.472;2023-12-28T02:39:35;8.23;;;6.03;;
50769;SDS011;36740;48.698;11.472;2023-12-28T02:45:09;9.05;;;5.30;;
50769;SDS011;36740;48.698;11.472;2023-12-28T02:47:55;13.35;;;6.38;;
50769;SDS011;36740;48.698;11.472;2023-12-28T02:50:41;9.85;;;6.65;;
50769;SDS011;36740;48.698;11.472;2023-12-28T02:53:27;11.20;;;6.65;;
50769;SDS011;36740;48.698;11.472;2023-12-28T02:56:13;9.65;;;5.95;;
50769;SDS011;36740;48.698;11.472;2023-12-28T02:58:58;11.40;;;6.85;;
50769;SDS011;36740;48.698;11.472;2023-12-28T03:01:44;15.25;;;6.70;;
50769;SDS011;36740;48.698;11.472;2023-12-28T03:04:30;12.15;;;6.78;;
50769;SDS011;36740;48.698;11.472;2023-12-28T03:07:16;11.75;;;6.03;;
50769;SDS011;36740;48.698;11.472;2023-12-28T03:10:02;9.65;;;6.60;;
50769;SDS011;36740;48.698;11.472;2023-12-28T03:12:48;11.38;;;5.55;;
50769;SDS011;36740;48.698;11.472;2023-12-28T03:15:34;12.05;;;6.55;;
50769;SDS011;36740;48.698;11.472;2023-12-28T03:18:19;10.27;;;5.75;;
50769;SDS011;36740;48.698;11.472;2023-12-28T03:21:05;9.52;;;5.50;;
50769;SDS011;36740;48.698;11.472;2023-12-28T03:23:51;9.43;;;6.47;;
50769;SDS011;36740;48.698;11.472;2023-12-28T03:26:38;9.00;;;6.53;;
50769;SDS011;36740;48.698;11.472;2023-12-28T03:29:24;8.82;;;5.55;;
50769;SDS011;36740;48.698;11.472;2023-12-28T03:32:10;7.80;;;5.82;;
50769;SDS011;36740;48.698;11.472;2023-12-28T03:34:56;10.40;;;6.07;;
50769;SDS011;36740;48.698;11.472;2023-12-28T03:37:42;14.40;;;8.23;;
50769;SDS011;36740;48.698;11.472;2023-12-28T03:40:28;10.32;;;6.95;;
50769;SDS011;36740;48.698;11.472;2023-12-28T03:43:13;8.27;;;5.97;;
50769;SDS011;36740;48.698;11.472;2023-12-28T03:45:59;11.00;;;7.05;;
50769;SDS011;36740;48.698;11.472;2023-12-28T03:48:45;17.75;;;6.55;;
50769;SDS011;36740;48.698;11.472;2023-12-28T03:51:31;9.57;;;6.85;;
50769;SDS011;36740;48.698;11.472;2023-12-28T03:54:17;9.95;;;7.03;;
50769;SDS011;36740;48.698;11.472;2023-12-28T03:57:04;13.02;;;6.47;;
50769;SDS011;36740;48.698;11.472;2023-12-28T03:59:49;12.32;;;6.50;;
50769;SDS011;36740;48.698;11.472;2023-12-28T04:02:35;11.30;;;7.45;;
50769;SDS011;36740;48.698;11.472;2023-12-28T04:05:21;10.93;;;7.15;;
50769;SDS011;36740;48.698;11.472;2023-12-28T04:08:07;18.13;;;8.55;;
50769;SDS011;36740;48.698;11.472;2023-12-28T04:10:53;13.00;;;8.63;;
50769;SDS011;36740;48.698;11.472;2023-12-28T04:13:39;12.48;;;7.85;;
50769;SDS011;36740;48.698;11.472;2023-12-28T04:16:24;11.27;;;6.78;;
50769;SDS011;36740;48.698;11.472;2023-12-28T04:19:10;13.88;;;7.80;;
50769;SDS011;36740;48.698;11.472;2023-12-28T04:21:56;11.25;;;7.35;;
50769;SDS011;36740;48.698;11.472;2023-12-28T04:24:42;12.00;;;7.75;;
50769;SDS011;36740;48.698;11.472;2023-12-28T04:27:28;10.10;;;7.38;;
50769;SDS011;36740;48.698;11.472;2023-12-28T04:30:14;11.50;;;7.70;;
50769;SDS011;36740;48.698;11.472;2023-12-28T04:33:00;9.60;;;7.15;;
50769;SDS011;36740;48.698;11.472;2023-12-28T04:35:46;13.98;;;8.27;;
50769;SDS011;36740;48.698;11.472;2023-12-28T04:38:32;13.07;;;7.63;;
50769;SDS011;36740;48.698;11.472;2023-12-28T04:41:18;13.13;;;8.40;;
50769;SDS011;36740;48.698;11.472;2023-12-28T04:44:04;11.25;;;6.75;;
50769;SDS011;36740;48.698;11.472;2023-12-28T04:46:51;12.95;;;7.40;;
50769;SDS011;36740;48.698;11.472;2023-12-28T04:49:37;9.05;;;6.63;;
50769;SDS011;36740;48.698;11.472;2023-12-28T04:52:23;10.75;;;7.20;;
50769;SDS011;36740;48.698;11.472;2023-12-28T04:55:14;9.52;;;6.30;;
50769;SDS011;36740;48.698;11.472;2023-12-28T04:57:59;10.73;;;7.15;;
50769;SDS011;36740;48.698;11.472;2023-12-28T05:00:45;15.27;;;8.52;;
50769;SDS011;36740;48.698;11.472;2023-12-28T05:03:32;11.18;;;7.13;;
50769;SDS011;36740;48.698;11.472;2023-12-28T05:06:17;8.70;;;5.97;;
50769;SDS011;36740;48.698;11.472;2023-12-28T05:09:03;11.85;;;7.80;;
50769;SDS011;36740;48.698;11.472;2023-12-28T05:11:49;18.55;;;7.65;;
50769;SDS011;36740;48.698;11.472;2023-12-28T05:14:35;11.02;;;7.03;;
50769;SDS011;36740;48.698;11.472;2023-12-28T05:17:22;12.25;;;7.72;;
50769;SDS011;36740;48.698;11.472;2023-12-28T05:20:09;13.73;;;7.18;;
50769;SDS011;36740;48.698;11.472;2023-12-28T05:22:56;11.27;;;6.88;;
50769;SDS011;36740;48.698;11.472;2023-12-28T05:25:42;10.82;;;6.03;;
50769;SDS011;36740;48.698;11.472;2023-12-28T05:28:28;8.80;;;5.65;;
50769;SDS011;36740;48.698;11.472;2023-12-28T05:31:14;8.38;;;5.20;;
50769;SDS011;36740;48.698;11.472;2023-12-28T05:34:01;7.70;;;6.03;;
50769;SDS011;36740;48.698;11.472;2023-12-28T05:36:47;7.60;;;5.28;;
50769;SDS011;36740;48.698;11.472;2023-12-28T05:39:33;12.75;;;6.72;;
50769;SDS011;36740;48.698;11.472;2023-12-28T05:42:20;9.13;;;6.50;;
50769;SDS011;36740;48.698;11.472;2023-12-28T05:45:06;12.55;;;6.72;;
50769;SDS011;36740;48.698;11.472;2023-12-28T05:47:57;9.00;;;6.25;;
50769;SDS011;36740;48.698;11.472;2023-12-28T05:50:49;10.38;;;6.05;;
50769;SDS011;36740;48.698;11.472;2023-12-28T05:53:35;10.93;;;7.28;;
50769;SDS011;36740;48.698;11.472;2023-12-28T05:56:21;10.18;;;6.15;;
50769;SDS011;36740;48.698;11.472;2023-12-28T05:59:07;13.32;;;7.72;;
50769;SDS011;36740;48.698;11.472;2023-12-28T06:01:53;12.05;;;8.85;;
50769;SDS011;36740;48.698;11.472;2023-12-28T06:04:39;13.32;;;7.10;;
50769;SDS011;36740;48.698;11.472;2023-12-28T06:07:24;11.18;;;6.47;;
50769;SDS011;36740;48.698;11.472;2023-12-28T06:10:11;9.73;;;6.53;;
50769;SDS011;36740;48.698;11.472;2023-12-28T06:13:00;8.70;;;6.00;;
50769;SDS011;36740;48.698;11.472;2023-12-28T06:15:46;9.35;;;6.20;;
50769;SDS011;36740;48.698;11.472;2023-12-28T06:18:32;15.50;;;8.35;;
50769;SDS011;36740;48.698;11.472;2023-12-28T06:21:20;17.02;;;12.50;;
50769;SDS011;36740;48.698;11.472;2023-12-28T06:24:07;22.52;;;15.65;;
50769;SDS011;36740;48.698;11.472;2023-12-28T06:26:53;17.00;;;10.38;;
50769;SDS011;36740;48.698;11.472;2023-12-28T06:29:39;12.50;;;8.93;;
50769;SDS011;36740;48.698;11.472;2023-12-28T06:32:25;13.98;;;8.48;;
50769;SDS011;36740;48.698;11.472;2023-12-28T06:35:11;16.70;;;9.65;;
50769;SDS011;36740;48.698;11.472;2023-12-28T06:37:56;11.75;;;7.03;;
50769;SDS011;36740;48.698;11.472;2023-12-28T06:40:42;9.07;;;5.88;;
50769;SDS011;36740;48.698;11.472;2023-12-28T06:43:28;8.20;;;4.90;;
50769;SDS011;36740;48.698;11.472;2023-12-28T06:46:14;12.65;;;7.10;;
50769;SDS011;36740;48.698;11.472;2023-12-28T06:49:00;10.25;;;6.03;;
50769;SDS011;36740;48.698;11.472;2023-12-28T06:51:46;9.77;;;6.80;;
50769;SDS011;36740;48.698;11.472;2023-12-28T06:54:31;11.65;;;7.22;;
50769;SDS011;36740;48.698;11.472;2023-12-28T06:57:19;9.15;;;6.25;;
50769;SDS011;36740;48.698;11.472;2023-12-28T07:00:05;7.75;;;5.80;;
50769;SDS011;36740;48.698;11.472;2023-12-28T07:02:54;11.93;;;6.60;;
50769;SDS011;36740;48.698;11.472;2023-12-28T07:05:39;9.15;;;6.82;;
50769;SDS011;36740;48.698;11.472;2023-12-28T07:08:26;12.07;;;7.90;;
50769;SDS011;36740;48.698;11.472;2023-12-28T07:11:12;17.83;;;10.25;;
50769;SDS011;36740;48.698;11.472;2023-12-28T07:13:58;15.00;;;10.05;;
50769;SDS011;36740;48.698;11.472;2023-12-28T07:16:46;24.85;;;19.65;;
50769;SDS011;36740;48.698;11.472;2023-12-28T07:19:32;13.00;;;9.43;;
50769;SDS011;36740;48.698;11.472;2023-12-28T07:22:18;10.52;;;6.47;;
50769;SDS011;36740;48.698;11.472;2023-12-28T07:25:07;14.63;;;9.13;;
50769;SDS011;36740;48.698;11.472;2023-12-28T07:27:53;15.38;;;8.68;;
50769;SDS011;36740;48.698;11.472;2023-12-28T07:30:39;13.63;;;9.07;;
50769;SDS011;36740;48.698;11.472;2023-12-28T07:33:26;18.52;;;13.38;;
50769;SDS011;36740;48.698;11.472;2023-12-28T07:36:12;28.88;;;14.75;;
50769;SDS011;36740;48.698;11.472;2023-12-28T07:38:58;24.58;;;16.38;;
50769;SDS011;36740;48.698;11.472;2023-12-28T07:41:44;13.45;;;9.50;;
50769;SDS011;36740;48.698;11.472;2023-12-28T07:44:30;18.67;;;12.50;;
50769;SDS011;36740;48.698;11.472;2023-12-28T07:47:15;17.80;;;13.05;;
50769;SDS011;36740;48.698;11.472;2023-12-28T07:50:01;14.30;;;12.30;;
50769;SDS011;36740;48.698;11.472;2023-12-28T07:52:48;14.95;;;12.20;;
50769;SDS011;36740;48.698;11.472;2023-12-28T07:55:34;26.40;;;13.38;;
50769;SDS011;36740;48.698;11.472;2023-12-28T07:58:20;17.98;;;13.23;;
50769;SDS011;36740;48.698;11.472;2023-12-28T08:01:10;19.33;;;10.27;;
50769;SDS011;36740;48.698;11.472;2023-12-28T08:03:56;17.15;;;10.77;;
50769;SDS011;36740;48.698;11.472;2023-12-28T08:06:42;16.38;;;9.65;;
50769;SDS011;36740;48.698;11.472;2023-12-28T08:09:28;19.20;;;11.25;;
50769;SDS011;36740;48.698;11.472;2023-12-28T08:12:14;11.93;;;9.38;;
50769;SDS011;36740;48.698;11.472;2023-12-28T08:14:59;16.73;;;10.35;;
50769;SDS011;36740;48.698;11.472;2023-12-28T08:17:45;17.83;;;10.70;;
50769;SDS011;36740;48.698;11.472;2023-12-28T08:20:31;11.82;;;9.10;;
50769;SDS011;36740;48.698;11.472;2023-12-28T08:23:17;14.48;;;10.00;;
50769;SDS011;36740;48.698;11.472;2023-12-28T08:26:02;16.95;;;9.50;;
50769;SDS011;36740;48.698;11.472;2023-12-28T08:28:49;15.90;;;9.07;;
50769;SDS011;36740;48.698;11.472;2023-12-28T08:31:34;12.45;;;8.48;;
50769;SDS011;36740;48.698;11.472;2023-12-28T08:34:20;11.20;;;7.15;;
50769;SDS011;36740;48.698;11.472;2023-12-28T08:37:06;12.43;;;7.30;;
50769;SDS011;36740;48.698;11.472;2023-12-28T08:39:52;9.32;;;6.55;;
50769;SDS011;36740;48.698;11.472;2023-12-28T08:42:38;10.50;;;8.05;;
50769;SDS011;36740;48.698;11.472;2023-12-28T08:45:25;11.07;;;7.15;;
50769;SDS011;36740;48.698;11.472;2023-12-28T08:48:10;13.05;;;7.28;;
50769;SDS011;36740;48.698;11.472;2023-12-28T08:50:56;11.98;;;7.38;;
50769;SDS011;36740;48.698;11.472;2023-12-28T08:53:42;9.75;;;6.28;;
50769;SDS011;36740;48.698;11.472;2023-12-28T08:56:28;12.55;;;7.35;;
50769;SDS011;36740;48.698;11.472;2023-12-28T08:59:14;13.70;;;8.15;;
50769;SDS011;36740;48.698;11.472;2023-12-28T09:02:00;11.85;;;6.53;;
50769;SDS011;36740;48.698;11.472;2023-12-28T09:04:46;12.75;;;7.18;;
50769;SDS011;36740;48.698;11.472;2023-12-28T09:07:32;18.52;;;9.25;;
50769;SDS011;36740;48.698;11.472;2023-12-28T09:10:18;14.45;;;10.73;;
50769;SDS011;36740;48.698;11.472;2023-12-28T09:13:04;14.55;;;8.38;;
50769;SDS011;36740;48.698;11.472;2023-12-28T09:15:51;12.48;;;8.68;;
50769;SDS011;36740;48.698;11.472;2023-12-28T09:18:36;14.88;;;9.98;;
50769;SDS011;36740;48.698;11.472;2023-12-28T09:21:23;12.77;;;9.05;;
50769;SDS011;36740;48.698;11.472;2023-12-28T09:24:09;12.13;;;7.30;;
50769;SDS011;36740;48.698;11.472;2023-12-28T09:26:55;10.00;;;6.38;;
50769;SDS011;36740;48.698;11.472;2023-12-28T09:29:40;13.80;;;7.22;;
50769;SDS011;36740;48.698;11.472;2023-12-28T09:32:26;11.52;;;7.28;;
50769;SDS011;36740;48.698;11.472;2023-12-28T09:35:12;11.65;;;6.40;;
50769;SDS011;36740;48.698;11.472;2023-12-28T09:37:58;10.50;;;7.72;;
50769;SDS011;36740;48.698;11.472;2023-12-28T09:40:44;17.13;;;9.50;;
50769;SDS011;36740;48.698;11.472;2023-12-28T09:43:31;9.15;;;6.25;;
50769;SDS011;36740;48.698;11.472;2023-12-28T09:46:22;8.82;;;5.53;;
50769;SDS011;36740;48.698;11.472;2023-12-28T09:49:08;9.43;;;5.88;;
50769;SDS011;36740;48.698;11.472;2023-12-28T09:51:54;10.07;;;6.85;;
50769;SDS011;36740;48.698;11.472;2023-12-28T09:54:40;9.20;;;6.38;;
50769;SDS011;36740;48.698;11.472;2023-12-28T09:57:26;12.43;;;7.43;;
50769;SDS011;36740;48.698;11.472;2023-12-28T10:00:12;14.05;;;5.97;;
50769;SDS011;36740;48.698;11.472;2023-12-28T10:02:58;10.90;;;6.25;;
50769;SDS011;36740;48.698;11.472;2023-12-28T10:05:44;8.98;;;6.63;;
50769;SDS011;36740;48.698;11.472;2023-12-28T10:08:31;8.68;;;5.80;;
50769;SDS011;36740;48.698;11.472;2023-12-28T10:11:17;9.90;;;5.13;;
50769;SDS011;36740;48.698;11.472;2023-12-28T10:14:04;10.73;;;7.88;;
50769;SDS011;36740;48.698;11.472;2023-12-28T10:16:50;10.35;;;6.07;;
50769;SDS011;36740;48.698;11.472;2023-12-28T10:19:36;12.80;;;7.53;;
50769;SDS011;36740;48.698;11.472;2023-12-28T10:22:22;11.27;;;7.85;;
50769;SDS011;36740;48.698;11.472;2023-12-28T10:25:08;13.20;;;8.15;;
50769;SDS011;36740;48.698;11.472;2023-12-28T10:27:55;9.38;;;6.63;;
50769;SDS011;36740;48.698;11.472;2023-12-28T10:30:40;15.82;;;8.38;;
50769;SDS011;36740;48.698;11.472;2023-12-28T10:33:26;11.15;;;8.07;;
50769;SDS011;36740;48.698;11.472;2023-12-28T10:36:12;7.32;;;5.05;;
50769;SDS011;36740;48.698;11.472;2023-12-28T10:39:01;14.52;;;5.72;;
50769;SDS011;36740;48.698;11.472;2023-12-28T10:41:48;7.85;;;5.15;;
50769;SDS011;36740;48.698;11.472;2023-12-28T10:44:35;14.07;;;5.53;;
50769;SDS011;36740;48.698;11.472;2023-12-28T10:47:27;8.52;;;5.72;;
50769;SDS011;36740;48.698;11.472;2023-12-28T10:50:16;7.85;;;5.03;;
50769;SDS011;36740;48.698;11.472;2023-12-28T10:53:09;9.02;;;4.85;;
50769;SDS011;36740;48.698;11.472;2023-12-28T11:01:55;7.97;;;5.65;;
50769;SDS011;36740;48.698;11.472;2023-12-28T11:04:53;8.77;;;5.38;;
50769;SDS011;36740;48.698;11.472;2023-12-28T11:07:41;9.35;;;6.05;;
50769;SDS011;36740;48.698;11.472;2023-12-28T11:10:28;10.68;;;7.05;;
50769;SDS011;36740;48.698;11.472;2023-12-28T11:13:17;14.93;;;7.07;;
50769;SDS011;36740;48.698;11.472;2023-12-28T11:16:07;11.55;;;6.63;;
50769;SDS011;36740;48.698;11.472;2023-12-28T11:18:54;11.48;;;5.25;;
50769;SDS011;36740;48.698;11.472;2023-12-28T11:21:41;7.28;;;4.85;;
50769;SDS011;36740;48.698;11.472;2023-12-28T11:24:28;9.68;;;5.35;;
50769;SDS011;36740;48.698;11.472;2023-12-28T11:27:14;11.13;;;5.25;;
50769;SDS011;36740;48.698;11.472;2023-12-28T11:30:05;10.68;;;5.47;;
50769;SDS011;36740;48.698;11.472;2023-12-28T11:32:52;7.05;;;4.22;;
50769;SDS011;36740;48.698;11.472;2023-12-28T11:35:42;7.93;;;4.97;;
50769;SDS011;36740;48.698;11.472;2023-12-28T11:41:19;10.82;;;7.47;;
50769;SDS011;36740;48.698;11.472;2023-12-28T11:44:06;12.93;;;8.93;;
50769;SDS011;36740;48.698;11.472;2023-12-28T11:46:52;8.30;;;5.28;;
50769;SDS011;36740;48.698;11.472;2023-12-28T11:49:38;9.15;;;5.70;;
50769;SDS011;36740;48.698;11.472;2023-12-28T11:52:26;16.23;;;9.80;;
50769;SDS011;36740;48.698;11.472;2023-12-28T11:55:20;25.02;;;6.35;;
50769;SDS011;36740;48.698;11.472;2023-12-28T11:58:07;10.25;;;5.38;;
50769;SDS011;36740;48.698;11.472;2023-12-28T12:00:53;13.32;;;5.75;;
50769;SDS011;36740;48.698;11.472;2023-12-28T12:03:39;8.25;;;5.70;;
50769;SDS011;36740;48.698;11.472;2023-12-28T12:06:25;8.68;;;5.85;;
50769;SDS011;36740;48.698;11.472;2023-12-28T12:09:11;10.98;;;6.80;;
50769;SDS011;36740;48.698;11.472;2023-12-28T12:11:56;8.13;;;6.47;;
50769;SDS011;36740;48.698;11.472;2023-12-28T12:14:43;16.30;;;7.30;;
50769;SDS011;36740;48.698;11.472;2023-12-28T12:17:29;8.73;;;6.57;;
50769;SDS011;36740;48.698;11.472;2023-12-28T12:20:15;22.98;;;7.55;;
50769;SDS011;36740;48.698;11.472;2023-12-28T12:23:01;9.98;;;6.30;;
50769;SDS011;36740;48.698;11.472;2023-12-28T12:25:47;8.63;;;7.07;;
50769;SDS011;36740;48.698;11.472;2023-12-28T12:28:33;10.07;;;6.80;;
50769;SDS011;36740;48.698;11.472;2023-12-28T12:31:19;16.65;;;7.60;;
50769;SDS011;36740;48.698;11.472;2023-12-28T12:34:05;10.75;;;6.95;;
50769;SDS011;36740;48.698;11.472;2023-12-28T12:36:51;16.95;;;9.85;;
50769;SDS011;36740;48.698;11.472;2023-12-28T12:39:39;15.43;;;10.93;;
50769;SDS011;36740;48.698;11.472;2023-12-28T12:42:25;16.48;;;10.35;;
50769;SDS011;36740;48.698;11.472;2023-12-28T12:45:11;16.65;;;10.68;;
50769;SDS011;36740;48.698;11.472;2023-12-28T12:47:57;17.73;;;9.48;;
50769;SDS011;36740;48.698;11.472;2023-12-28T12:50:43;10.80;;;6.60;;
50769;SDS011;36740;48.698;11.472;2023-12-28T12:53:33;12.02;;;9.25;;
50769;SDS011;36740;48.698;11.472;2023-12-28T12:56:20;15.65;;;9.63;;
50769;SDS011;36740;48.698;11.472;2023-12-28T12:59:05;37.85;;;18.45;;
50769;SDS011;36740;48.698;11.472;2023-12-28T13:01:51;29.60;;;18.13;;
50769;SDS011;36740;48.698;11.472;2023-12-28T13:04:38;32.13;;;17.00;;
50769;SDS011;36740;48.698;11.472;2023-12-28T13:07:24;19.63;;;11.45;;
50769;SDS011;36740;48.698;11.472;2023-12-28T13:10:10;27.65;;;15.43;;
50769;SDS011;36740;48.698;11.472;2023-12-28T13:12:56;33.25;;;19.38;;
50769;SDS011;36740;48.698;11.472;2023-12-28T13:15:42;28.35;;;18.30;;
50769;SDS011;36740;48.698;11.472;2023-12-28T13:18:28;20.05;;;17.35;;
50769;SDS011;36740;48.698;11.472;2023-12-28T13:21:13;32.17;;;16.83;;
50769;SDS011;36740;48.698;11.472;2023-12-28T13:24:00;26.30;;;13.77;;
50769;SDS011;36740;48.698;11.472;2023-12-28T13:26:47;18.35;;;12.52;;
50769;SDS011;36740;48.698;11.472;2023-12-28T13:29:33;15.55;;;8.90;;
50769;SDS011;36740;48.698;11.472;2023-12-28T13:32:19;17.80;;;9.93;;
50769;SDS011;36740;48.698;11.472;2023-12-28T13:35:05;23.08;;;10.05;;
50769;SDS011;36740;48.698;11.472;2023-12-28T13:37:50;14.70;;;10.35;;
50769;SDS011;36740;48.698;11.472;2023-12-28T13:40:36;13.77;;;9.73;;
50769;SDS011;36740;48.698;11.472;2023-12-28T13:43:22;16.20;;;10.40;;
50769;SDS011;36740;48.698;11.472;2023-12-28T13:46:08;13.27;;;8.88;;
50769;SDS011;36740;48.698;11.472;2023-12-28T13:48:55;14.30;;;9.27;;
50769;SDS011;36740;48.698;11.472;2023-12-28T13:51:42;15.15;;;9.57;;
50769;SDS011;36740;48.698;11.472;2023-12-28T13:54:28;16.23;;;10.43;;
50769;SDS011;36740;48.698;11.472;2023-12-28T13:57:13;10.77;;;7.70;;
50769;SDS011;36740;48.698;11.472;2023-12-28T14:00:00;14.00;;;8.50;;
50769;SDS011;36740;48.698;11.472;2023-12-28T14:02:46;20.00;;;8.25;;
50769;SDS011;36740;48.698;11.472;2023-12-28T14:05:32;23.35;;;8.88;;
50769;SDS011;36740;48.698;11.472;2023-12-28T14:08:19;12.25;;;6.88;;
50769;SDS011;36740;48.698;11.472;2023-12-28T14:11:27;13.00;;;8.60;;
50769;SDS011;36740;48.698;11.472;2023-12-28T14:14:14;11.20;;;7.68;;
50769;SDS011;36740;48.698;11.472;2023-12-28T14:17:00;12.77;;;8.32;;
50769;SDS011;36740;48.698;11.472;2023-12-28T14:19:46;11.25;;;7.57;;
50769;SDS011;36740;48.698;11.472;2023-12-28T14:22:32;12.95;;;8.10;;
50769;SDS011;36740;48.698;11.472;2023-12-28T14:25:18;17.25;;;9.18;;
50769;SDS011;36740;48.698;11.472;2023-12-28T14:31:46;13.98;;;9.25;;
50769;SDS011;36740;48.698;11.472;2023-12-28T14:34:32;19.42;;;11.48;;
50769;SDS011;36740;48.698;11.472;2023-12-28T14:37:18;16.30;;;9.85;;
50769;SDS011;36740;48.698;11.472;2023-12-28T14:40:05;16.33;;;8.93;;
50769;SDS011;36740;48.698;11.472;2023-12-28T14:42:51;20.65;;;9.43;;
50769;SDS011;36740;48.698;11.472;2023-12-28T14:45:37;26.85;;;15.15;;
50769;SDS011;36740;48.698;11.472;2023-12-28T14:48:23;18.67;;;11.93;;
50769;SDS011;36740;48.698;11.472;2023-12-28T14:51:11;18.92;;;15.35;;
50769;SDS011;36740;48.698;11.472;2023-12-28T14:53:57;28.73;;;12.25;;
50769;SDS011;36740;48.698;11.472;2023-12-28T14:56:43;24.25;;;13.55;;
50769;SDS011;36740;48.698;11.472;2023-12-28T14:59:28;16.52;;;11.48;;
50769;SDS011;36740;48.698;11.472;2023-12-28T15:02:14;28.58;;;14.60;;
50769;SDS011;36740;48.698;11.472;2023-12-28T15:05:00;20.67;;;14.18;;
50769;SDS011;36740;48.698;11.472;2023-12-28T15:07:46;24.42;;;13.35;;
50769;SDS011;36740;48.698;11.472;2023-12-28T15:10:33;55.65;;;28.40;;
50769;SDS011;36740;48.698;11.472;2023-12-28T15:13:20;236.93;;;139.52;;
50769;SDS011;36740;48.698;11.472;2023-12-28T15:16:06;208.43;;;111.90;;
50769;SDS011;36740;48.698;11.472;2023-12-28T15:18:52;82.35;;;47.38;;
50769;SDS011;36740;48.698;11.472;2023-12-28T15:21:38;44.40;;;27.65;;
50769;SDS011;36740;48.698;11.472;2023-12-28T15:24:24;25.42;;;18.33;;
50769;SDS011;36740;48.698;11.472;2023-12-28T15:27:10;24.95;;;19.02;;
50769;SDS011;36740;48.698;11.472;2023-12-28T15:29:57;22.67;;;14.55;;
50769;SDS011;36740;48.698;11.472;2023-12-28T15:32:42;23.25;;;14.98;;
50769;SDS011;36740;48.698;11.472;2023-12-28T15:35:28;20.63;;;12.75;;
50769;SDS011;36740;48.698;11.472;2023-12-28T15:38:14;16.25;;;9.05;;
50769;SDS011;36740;48.698;11.472;2023-12-28T15:41:01;15.18;;;9.98;;
50769;SDS011;36740;48.698;11.472;2023-12-28T15:43:47;14.05;;;11.88;;
50769;SDS011;36740;48.698;11.472;2023-12-28T15:46:33;17.35;;;11.15;;
50769;SDS011;36740;48.698;11.472;2023-12-28T15:49:19;17.38;;;12.55;;
50769;SDS011;36740;48.698;11.472;2023-12-28T15:52:05;27.30;;;11.65;;
50769;SDS011;36740;48.698;11.472;2023-12-28T15:54:51;19.45;;;10.80;;
50769;SDS011;36740;48.698;11.472;2023-12-28T15:57:37;16.52;;;10.07;;
50769;SDS011;36740;48.698;11.472;2023-12-28T16:00:23;18.52;;;12.40;;
